sensor_id;sensor_type;location;lat;lon;timestamp;P1;durP1;ratioP1;P2;durP2;ratioP2
20365;SDS011;10341;49.894;8.822;2023-03-11T00:04:16;1.92;;;1.50;;
20365;SDS011;10341;49.894;8.822;2023-03-11T00:09:35;2.08;;;1.75;;
20365;SDS011;10341;49.894;8.822;2023-03-11T00:20:16;1.70;;;1.17;;
20365;SDS011;10341;49.894;8.822;2023-03-11T00:25:41;1.70;;;1.25;;
20365;SDS011;10341;49.894;8.822;2023-03-11T00:31:03;1.83;;;1.00;;
20365;SDS011;10341;49.894;8.822;2023-03-11T00:36:23;1.17;;;0.80;;
20365;SDS011;10341;49.894;8.822;2023-03-11T00:41:46;1.77;;;1.00;;
20365;SDS011;10341;49.894;8.822;2023-03-11T00:47:07;1.63;;;0.80;;
20365;SDS011;10341;49.894;8.822;2023-03-11T00:52:28;1.42;;;0.80;;
20365;SDS011;10341;49.894;8.822;2023-03-11T01:03:09;1.50;;;0.90;;
20365;SDS011;10341;49.894;8.822;2023-03-11T01:08:28;1.17;;;0.75;;
20365;SDS011;10341;49.894;8.822;2023-03-11T01:13:49;0.77;;;0.70;;
20365;SDS011;10341;49.894;8.822;2023-03-11T01:24:28;1.25;;;0.60;;
20365;SDS011;10341;49.894;8.822;2023-03-11T01:29:47;5.15;;;0.70;;
20365;SDS011;10341;49.894;8.822;2023-03-11T01:35:06;0.60;;;0.52;;
20365;SDS011;10341;49.894;8.822;2023-03-11T01:40:28;1.80;;;0.85;;
20365;SDS011;10341;49.894;8.822;2023-03-11T01:51:16;4.57;;;0.73;;
20365;SDS011;10341;49.894;8.822;2023-03-11T01:56:41;2.30;;;0.63;;
20365;SDS011;10341;49.894;8.822;2023-03-11T02:02:10;1.65;;;0.77;;
20365;SDS011;10341;49.894;8.822;2023-03-11T02:07:37;1.90;;;0.57;;
20365;SDS011;10341;49.894;8.822;2023-03-11T02:12:59;1.77;;;0.70;;
20365;SDS011;10341;49.894;8.822;2023-03-11T02:18:22;3.15;;;0.70;;
20365;SDS011;10341;49.894;8.822;2023-03-11T02:23:47;3.75;;;0.90;;
20365;SDS011;10341;49.894;8.822;2023-03-11T02:29:26;3.67;;;0.70;;
20365;SDS011;10341;49.894;8.822;2023-03-11T02:34:47;6.63;;;1.00;;
20365;SDS011;10341;49.894;8.822;2023-03-11T02:40:27;1.70;;;0.60;;
20365;SDS011;10341;49.894;8.822;2023-03-11T02:45:49;2.88;;;0.77;;
20365;SDS011;10341;49.894;8.822;2023-03-11T02:56:29;2.70;;;1.02;;
20365;SDS011;10341;49.894;8.822;2023-03-11T03:01:49;3.60;;;1.13;;
20365;SDS011;10341;49.894;8.822;2023-03-11T03:12:29;4.55;;;0.75;;
20365;SDS011;10341;49.894;8.822;2023-03-11T03:23:09;3.75;;;1.23;;
20365;SDS011;10341;49.894;8.822;2023-03-11T03:33:49;2.80;;;1.00;;
20365;SDS011;10341;49.894;8.822;2023-03-11T03:44:29;6.28;;;1.60;;
20365;SDS011;10341;49.894;8.822;2023-03-11T03:49:50;4.90;;;1.02;;
20365;SDS011;10341;49.894;8.822;2023-03-11T03:55:10;3.25;;;0.98;;
20365;SDS011;10341;49.894;8.822;2023-03-11T04:00:30;2.55;;;0.90;;
20365;SDS011;10341;49.894;8.822;2023-03-11T04:05:53;1.75;;;0.90;;
20365;SDS011;10341;49.894;8.822;2023-03-11T04:11:22;8.43;;;1.37;;
20365;SDS011;10341;49.894;8.822;2023-03-11T04:16:42;4.75;;;1.10;;
20365;SDS011;10341;49.894;8.822;2023-03-11T04:22:04;3.17;;;0.90;;
20365;SDS011;10341;49.894;8.822;2023-03-11T04:32:43;5.50;;;1.40;;
20365;SDS011;10341;49.894;8.822;2023-03-11T04:38:03;4.28;;;1.52;;
20365;SDS011;10341;49.894;8.822;2023-03-11T04:48:42;2.45;;;1.13;;
20365;SDS011;10341;49.894;8.822;2023-03-11T04:59:23;2.88;;;1.38;;
20365;SDS011;10341;49.894;8.822;2023-03-11T05:04:44;4.35;;;1.50;;
20365;SDS011;10341;49.894;8.822;2023-03-11T05:15:24;2.95;;;1.30;;
20365;SDS011;10341;49.894;8.822;2023-03-11T05:20:44;2.40;;;1.20;;
20365;SDS011;10341;49.894;8.822;2023-03-11T05:26:05;3.38;;;1.20;;
20365;SDS011;10341;49.894;8.822;2023-03-11T05:31:26;4.53;;;1.38;;
20365;SDS011;10341;49.894;8.822;2023-03-11T05:47:26;3.92;;;1.67;;
20365;SDS011;10341;49.894;8.822;2023-03-11T05:52:47;5.63;;;1.95;;
20365;SDS011;10341;49.894;8.822;2023-03-11T05:58:07;7.38;;;1.80;;
20365;SDS011;10341;49.894;8.822;2023-03-11T06:03:26;6.50;;;1.60;;
20365;SDS011;10341;49.894;8.822;2023-03-11T06:14:12;2.90;;;1.20;;
20365;SDS011;10341;49.894;8.822;2023-03-11T06:19:34;8.98;;;2.38;;
20365;SDS011;10341;49.894;8.822;2023-03-11T06:24:54;6.20;;;1.65;;
20365;SDS011;10341;49.894;8.822;2023-03-11T06:30:15;7.90;;;1.48;;
20365;SDS011;10341;49.894;8.822;2023-03-11T06:35:44;8.85;;;1.58;;
20365;SDS011;10341;49.894;8.822;2023-03-11T06:41:13;3.20;;;1.50;;
20365;SDS011;10341;49.894;8.822;2023-03-11T06:46:33;4.53;;;1.60;;
20365;SDS011;10341;49.894;8.822;2023-03-11T06:51:53;7.45;;;1.50;;
20365;SDS011;10341;49.894;8.822;2023-03-11T07:02:32;7.27;;;1.63;;
20365;SDS011;10341;49.894;8.822;2023-03-11T07:07:52;8.00;;;1.77;;
20365;SDS011;10341;49.894;8.822;2023-03-11T07:13:14;4.40;;;1.80;;
20365;SDS011;10341;49.894;8.822;2023-03-11T07:18:35;9.15;;;2.15;;
20365;SDS011;10341;49.894;8.822;2023-03-11T07:23:57;6.13;;;1.50;;
20365;SDS011;10341;49.894;8.822;2023-03-11T07:29:18;5.47;;;1.50;;
20365;SDS011;10341;49.894;8.822;2023-03-11T07:34:38;5.68;;;2.15;;
20365;SDS011;10341;49.894;8.822;2023-03-11T07:39:57;6.35;;;1.70;;
20365;SDS011;10341;49.894;8.822;2023-03-11T07:45:17;7.28;;;1.80;;
20365;SDS011;10341;49.894;8.822;2023-03-11T07:50:36;3.17;;;1.40;;
20365;SDS011;10341;49.894;8.822;2023-03-11T07:55:57;4.10;;;1.60;;
20365;SDS011;10341;49.894;8.822;2023-03-11T08:01:18;5.03;;;1.45;;
20365;SDS011;10341;49.894;8.822;2023-03-11T08:06:40;6.35;;;1.67;;
20365;SDS011;10341;49.894;8.822;2023-03-11T08:12:01;3.78;;;1.42;;
20365;SDS011;10341;49.894;8.822;2023-03-11T08:17:21;9.55;;;1.85;;
20365;SDS011;10341;49.894;8.822;2023-03-11T08:22:41;3.57;;;1.40;;
20365;SDS011;10341;49.894;8.822;2023-03-11T08:28:00;5.68;;;1.50;;
20365;SDS011;10341;49.894;8.822;2023-03-11T08:33:20;3.07;;;1.23;;
20365;SDS011;10341;49.894;8.822;2023-03-11T08:38:39;2.80;;;1.23;;
20365;SDS011;10341;49.894;8.822;2023-03-11T08:43:59;8.23;;;1.63;;
20365;SDS011;10341;49.894;8.822;2023-03-11T08:49:18;5.97;;;1.65;;
20365;SDS011;10341;49.894;8.822;2023-03-11T08:54:38;4.97;;;1.20;;
20365;SDS011;10341;49.894;8.822;2023-03-11T08:59:57;4.73;;;1.20;;
20365;SDS011;10341;49.894;8.822;2023-03-11T09:05:17;2.72;;;1.30;;
20365;SDS011;10341;49.894;8.822;2023-03-11T09:10:36;3.27;;;1.27;;
20365;SDS011;10341;49.894;8.822;2023-03-11T09:15:56;3.13;;;1.30;;
20365;SDS011;10341;49.894;8.822;2023-03-11T09:21:16;2.78;;;1.23;;
20365;SDS011;10341;49.894;8.822;2023-03-11T09:26:35;6.57;;;1.50;;
20365;SDS011;10341;49.894;8.822;2023-03-11T09:31:55;2.65;;;1.02;;
20365;SDS011;10341;49.894;8.822;2023-03-11T09:37:14;3.85;;;1.20;;
20365;SDS011;10341;49.894;8.822;2023-03-11T09:53:41;3.85;;;1.50;;
20365;SDS011;10341;49.894;8.822;2023-03-11T09:59:17;5.80;;;1.05;;
20365;SDS011;10341;49.894;8.822;2023-03-11T10:04:48;1.77;;;0.95;;
20365;SDS011;10341;49.894;8.822;2023-03-11T10:10:14;2.37;;;0.97;;
20365;SDS011;10341;49.894;8.822;2023-03-11T10:15:51;3.40;;;0.95;;
20365;SDS011;10341;49.894;8.822;2023-03-11T10:27:08;3.22;;;0.93;;
20365;SDS011;10341;49.894;8.822;2023-03-11T10:38:06;3.38;;;1.13;;
20365;SDS011;10341;49.894;8.822;2023-03-11T10:43:34;3.97;;;1.20;;
20365;SDS011;10341;49.894;8.822;2023-03-11T10:48:56;2.88;;;0.93;;
20365;SDS011;10341;49.894;8.822;2023-03-11T11:00:05;7.60;;;1.73;;
20365;SDS011;10341;49.894;8.822;2023-03-11T11:05:35;3.83;;;1.67;;
20365;SDS011;10341;49.894;8.822;2023-03-11T11:10:59;4.45;;;1.70;;
20365;SDS011;10341;49.894;8.822;2023-03-11T11:16:20;3.03;;;1.58;;
20365;SDS011;10341;49.894;8.822;2023-03-11T11:21:41;2.85;;;1.40;;
20365;SDS011;10341;49.894;8.822;2023-03-11T11:32:42;2.93;;;1.33;;
20365;SDS011;10341;49.894;8.822;2023-03-11T11:38:02;4.30;;;1.23;;
20365;SDS011;10341;49.894;8.822;2023-03-11T11:43:34;1.17;;;0.90;;
20365;SDS011;10341;49.894;8.822;2023-03-11T11:54:25;2.53;;;1.10;;
20365;SDS011;10341;49.894;8.822;2023-03-11T11:59:49;2.50;;;1.00;;
20365;SDS011;10341;49.894;8.822;2023-03-11T12:05:09;2.15;;;1.48;;
20365;SDS011;10341;49.894;8.822;2023-03-11T12:16:25;5.18;;;1.20;;
20365;SDS011;10341;49.894;8.822;2023-03-11T12:22:19;4.45;;;1.50;;
20365;SDS011;10341;49.894;8.822;2023-03-11T12:33:38;4.95;;;1.58;;
20365;SDS011;10341;49.894;8.822;2023-03-11T12:39:06;2.25;;;1.00;;
20365;SDS011;10341;49.894;8.822;2023-03-11T12:44:37;3.72;;;1.98;;
20365;SDS011;10341;49.894;8.822;2023-03-11T12:50:35;1.92;;;1.10;;
20365;SDS011;10341;49.894;8.822;2023-03-11T12:56:03;3.53;;;1.17;;
20365;SDS011;10341;49.894;8.822;2023-03-11T13:07:12;5.30;;;1.20;;
20365;SDS011;10341;49.894;8.822;2023-03-11T13:12:55;3.58;;;1.10;;
20365;SDS011;10341;49.894;8.822;2023-03-11T13:23:36;4.43;;;1.60;;
20365;SDS011;10341;49.894;8.822;2023-03-11T13:40:18;3.60;;;1.20;;
20365;SDS011;10341;49.894;8.822;2023-03-11T13:45:55;4.22;;;1.40;;
20365;SDS011;10341;49.894;8.822;2023-03-11T13:51:19;5.28;;;2.00;;
20365;SDS011;10341;49.894;8.822;2023-03-11T13:56:43;3.95;;;1.90;;
20365;SDS011;10341;49.894;8.822;2023-03-11T14:02:13;5.43;;;1.35;;
20365;SDS011;10341;49.894;8.822;2023-03-11T14:07:36;2.75;;;1.40;;
20365;SDS011;10341;49.894;8.822;2023-03-11T14:23:52;2.35;;;1.08;;
20365;SDS011;10341;49.894;8.822;2023-03-11T14:29:16;3.63;;;1.10;;
20365;SDS011;10341;49.894;8.822;2023-03-11T14:34:38;2.03;;;1.20;;
20365;SDS011;10341;49.894;8.822;2023-03-11T14:39:59;6.43;;;1.20;;
20365;SDS011;10341;49.894;8.822;2023-03-11T14:45:18;3.88;;;1.80;;
20365;SDS011;10341;49.894;8.822;2023-03-11T14:50:41;4.07;;;1.27;;
20365;SDS011;10341;49.894;8.822;2023-03-11T14:56:04;1.88;;;0.90;;
20365;SDS011;10341;49.894;8.822;2023-03-11T15:01:29;2.35;;;1.13;;
20365;SDS011;10341;49.894;8.822;2023-03-11T15:06:59;2.17;;;1.00;;
20365;SDS011;10341;49.894;8.822;2023-03-11T15:12:29;1.80;;;1.00;;
20365;SDS011;10341;49.894;8.822;2023-03-11T15:17:54;5.03;;;1.40;;
20365;SDS011;10341;49.894;8.822;2023-03-11T15:23:18;2.25;;;1.10;;
20365;SDS011;10341;49.894;8.822;2023-03-11T15:28:40;2.63;;;0.98;;
20365;SDS011;10341;49.894;8.822;2023-03-11T15:39:49;2.50;;;1.10;;
20365;SDS011;10341;49.894;8.822;2023-03-11T15:45:17;3.70;;;0.90;;
20365;SDS011;10341;49.894;8.822;2023-03-11T15:50:47;3.42;;;1.20;;
20365;SDS011;10341;49.894;8.822;2023-03-11T15:56:21;2.67;;;0.98;;
20365;SDS011;10341;49.894;8.822;2023-03-11T16:01:42;2.25;;;1.05;;
20365;SDS011;10341;49.894;8.822;2023-03-11T16:07:02;3.35;;;1.00;;
20365;SDS011;10341;49.894;8.822;2023-03-11T16:12:22;4.50;;;1.40;;
20365;SDS011;10341;49.894;8.822;2023-03-11T16:17:41;3.65;;;1.27;;
20365;SDS011;10341;49.894;8.822;2023-03-11T16:23:01;3.47;;;1.48;;
20365;SDS011;10341;49.894;8.822;2023-03-11T16:28:21;2.33;;;1.27;;
20365;SDS011;10341;49.894;8.822;2023-03-11T16:33:41;4.13;;;1.35;;
20365;SDS011;10341;49.894;8.822;2023-03-11T16:39:00;2.85;;;0.90;;
20365;SDS011;10341;49.894;8.822;2023-03-11T16:44:20;1.27;;;0.95;;
20365;SDS011;10341;49.894;8.822;2023-03-11T16:49:39;5.18;;;1.83;;
20365;SDS011;10341;49.894;8.822;2023-03-11T16:54:59;2.58;;;1.20;;
20365;SDS011;10341;49.894;8.822;2023-03-11T17:00:19;5.32;;;1.73;;
20365;SDS011;10341;49.894;8.822;2023-03-11T17:05:38;2.80;;;1.30;;
20365;SDS011;10341;49.894;8.822;2023-03-11T17:10:58;3.00;;;1.20;;
20365;SDS011;10341;49.894;8.822;2023-03-11T17:16:18;1.77;;;1.20;;
20365;SDS011;10341;49.894;8.822;2023-03-11T17:21:38;5.30;;;1.17;;
20365;SDS011;10341;49.894;8.822;2023-03-11T17:26:57;2.90;;;1.27;;
20365;SDS011;10341;49.894;8.822;2023-03-11T17:32:17;3.78;;;1.27;;
20365;SDS011;10341;49.894;8.822;2023-03-11T17:37:37;2.42;;;1.52;;
20365;SDS011;10341;49.894;8.822;2023-03-11T17:42:57;3.17;;;1.55;;
20365;SDS011;10341;49.894;8.822;2023-03-11T17:53:39;2.35;;;1.48;;
20365;SDS011;10341;49.894;8.822;2023-03-11T17:59:00;2.75;;;1.33;;
20365;SDS011;10341;49.894;8.822;2023-03-11T18:09:39;7.75;;;1.38;;
20365;SDS011;10341;49.894;8.822;2023-03-11T18:15:03;1.70;;;1.08;;
20365;SDS011;10341;49.894;8.822;2023-03-11T18:20:25;3.75;;;1.25;;
20365;SDS011;10341;49.894;8.822;2023-03-11T18:25:48;2.55;;;1.50;;
20365;SDS011;10341;49.894;8.822;2023-03-11T18:31:10;2.28;;;1.30;;
20365;SDS011;10341;49.894;8.822;2023-03-11T18:36:32;4.97;;;1.15;;
20365;SDS011;10341;49.894;8.822;2023-03-11T18:41:54;2.58;;;1.38;;
20365;SDS011;10341;49.894;8.822;2023-03-11T18:47:13;4.88;;;1.58;;
20365;SDS011;10341;49.894;8.822;2023-03-11T18:52:33;3.92;;;1.40;;
20365;SDS011;10341;49.894;8.822;2023-03-11T18:57:52;3.80;;;1.23;;
20365;SDS011;10341;49.894;8.822;2023-03-11T19:08:31;5.20;;;1.97;;
20365;SDS011;10341;49.894;8.822;2023-03-11T19:13:50;5.97;;;2.25;;
20365;SDS011;10341;49.894;8.822;2023-03-11T19:19:11;3.17;;;1.55;;
20365;SDS011;10341;49.894;8.822;2023-03-11T19:24:30;1.85;;;1.50;;
20365;SDS011;10341;49.894;8.822;2023-03-11T19:29:50;7.30;;;2.53;;
20365;SDS011;10341;49.894;8.822;2023-03-11T19:35:10;1.58;;;1.40;;
20365;SDS011;10341;49.894;8.822;2023-03-11T19:40:31;3.83;;;1.90;;
20365;SDS011;10341;49.894;8.822;2023-03-11T19:45:51;2.25;;;1.60;;
20365;SDS011;10341;49.894;8.822;2023-03-11T19:51:10;2.17;;;1.40;;
20365;SDS011;10341;49.894;8.822;2023-03-11T19:56:30;1.73;;;1.30;;
20365;SDS011;10341;49.894;8.822;2023-03-11T20:01:49;5.45;;;2.20;;
20365;SDS011;10341;49.894;8.822;2023-03-11T20:07:09;6.95;;;2.85;;
20365;SDS011;10341;49.894;8.822;2023-03-11T20:12:28;4.60;;;2.67;;
20365;SDS011;10341;49.894;8.822;2023-03-11T20:17:47;5.35;;;2.50;;
20365;SDS011;10341;49.894;8.822;2023-03-11T20:23:06;5.47;;;1.92;;
20365;SDS011;10341;49.894;8.822;2023-03-11T20:33:46;4.77;;;2.17;;
20365;SDS011;10341;49.894;8.822;2023-03-11T20:39:06;5.13;;;2.15;;
20365;SDS011;10341;49.894;8.822;2023-03-11T20:44:25;4.40;;;3.17;;
20365;SDS011;10341;49.894;8.822;2023-03-11T20:49:44;6.10;;;3.70;;
20365;SDS011;10341;49.894;8.822;2023-03-11T20:55:03;4.70;;;3.15;;
20365;SDS011;10341;49.894;8.822;2023-03-11T21:00:25;3.88;;;2.70;;
20365;SDS011;10341;49.894;8.822;2023-03-11T21:11:03;5.65;;;2.38;;
20365;SDS011;10341;49.894;8.822;2023-03-11T21:16:23;5.07;;;3.10;;
20365;SDS011;10341;49.894;8.822;2023-03-11T21:21:44;5.03;;;2.88;;
20365;SDS011;10341;49.894;8.822;2023-03-11T21:27:03;6.85;;;3.47;;
20365;SDS011;10341;49.894;8.822;2023-03-11T21:32:22;6.90;;;4.00;;
20365;SDS011;10341;49.894;8.822;2023-03-11T21:37:42;6.05;;;3.80;;
20365;SDS011;10341;49.894;8.822;2023-03-11T21:43:03;8.23;;;4.38;;
20365;SDS011;10341;49.894;8.822;2023-03-11T21:48:23;6.75;;;3.80;;
20365;SDS011;10341;49.894;8.822;2023-03-11T21:53:42;5.75;;;3.60;;
20365;SDS011;10341;49.894;8.822;2023-03-11T22:04:21;7.05;;;3.28;;
20365;SDS011;10341;49.894;8.822;2023-03-11T22:09:40;5.35;;;3.03;;
20365;SDS011;10341;49.894;8.822;2023-03-11T22:14:59;8.43;;;4.00;;
20365;SDS011;10341;49.894;8.822;2023-03-11T22:20:19;6.55;;;3.97;;
20365;SDS011;10341;49.894;8.822;2023-03-11T22:25:38;6.93;;;4.43;;
20365;SDS011;10341;49.894;8.822;2023-03-11T22:30:58;5.28;;;3.65;;
20365;SDS011;10341;49.894;8.822;2023-03-11T22:36:18;8.32;;;3.70;;
20365;SDS011;10341;49.894;8.822;2023-03-11T22:41:37;5.90;;;3.78;;
20365;SDS011;10341;49.894;8.822;2023-03-11T22:46:56;5.05;;;3.58;;
20365;SDS011;10341;49.894;8.822;2023-03-11T22:57:34;8.40;;;4.10;;
20365;SDS011;10341;49.894;8.822;2023-03-11T23:02:56;6.63;;;3.80;;
20365;SDS011;10341;49.894;8.822;2023-03-11T23:08:15;6.55;;;3.95;;
20365;SDS011;10341;49.894;8.822;2023-03-11T23:13:36;8.25;;;4.45;;
20365;SDS011;10341;49.894;8.822;2023-03-11T23:18:55;9.15;;;4.70;;
20365;SDS011;10341;49.894;8.822;2023-03-11T23:24:15;6.60;;;4.68;;
20365;SDS011;10341;49.894;8.822;2023-03-11T23:29:35;10.48;;;4.88;;
20365;SDS011;10341;49.894;8.822;2023-03-11T23:34:54;7.15;;;4.50;;
20365;SDS011;10341;49.894;8.822;2023-03-11T23:40:14;7.47;;;4.57;;
20365;SDS011;10341;49.894;8.822;2023-03-11T23:45:33;9.18;;;4.82;;
20365;SDS011;10341;49.894;8.822;2023-03-11T23:50:53;12.88;;;6.80;;
20365;SDS011;10341;49.894;8.822;2023-03-11T23:56:15;12.18;;;6.65;;
